sensor_id;sensor_type;location;lat;lon;timestamp;temperature;humidity
17815;DHT22;9031;50.974;11.330;2022-07-19T00:00:45;18.20;99.90
17815;DHT22;9031;50.974;11.330;2022-07-19T00:03:16;18.20;99.90
17815;DHT22;9031;50.974;11.330;2022-07-19T00:05:43;18.10;99.90
17815;DHT22;9031;50.974;11.330;2022-07-19T00:08:08;18.10;99.90
17815;DHT22;9031;50.974;11.330;2022-07-19T00:10:34;18.10;99.90
17815;DHT22;9031;50.974;11.330;2022-07-19T00:13:00;18.00;99.90
17815;DHT22;9031;50.974;11.330;2022-07-19T00:15:25;18.00;99.90
17815;DHT22;9031;50.974;11.330;2022-07-19T00:17:51;17.90;99.90
17815;DHT22;9031;50.974;11.330;2022-07-19T00:20:19;18.00;99.90
17815;DHT22;9031;50.974;11.330;2022-07-19T00:22:45;18.00;99.90
17815;DHT22;9031;50.974;11.330;2022-07-19T00:25:11;18.00;99.90
17815;DHT22;9031;50.974;11.330;2022-07-19T00:27:36;17.90;99.90
17815;DHT22;9031;50.974;11.330;2022-07-19T00:30:05;17.80;99.90
17815;DHT22;9031;50.974;11.330;2022-07-19T00:32:31;17.80;99.90
17815;DHT22;9031;50.974;11.330;2022-07-19T00:34:56;17.80;99.90
17815;DHT22;9031;50.974;11.330;2022-07-19T00:37:22;17.70;99.90
17815;DHT22;9031;50.974;11.330;2022-07-19T00:39:47;17.70;99.90
17815;DHT22;9031;50.974;11.330;2022-07-19T00:42:13;17.60;99.90
17815;DHT22;9031;50.974;11.330;2022-07-19T00:44:40;17.50;99.90
17815;DHT22;9031;50.974;11.330;2022-07-19T00:47:06;17.40;99.90
17815;DHT22;9031;50.974;11.330;2022-07-19T00:49:32;17.50;99.90
17815;DHT22;9031;50.974;11.330;2022-07-19T00:51:59;17.50;99.90
17815;DHT22;9031;50.974;11.330;2022-07-19T00:54:25;17.50;99.90
17815;DHT22;9031;50.974;11.330;2022-07-19T00:56:52;17.50;99.90
17815;DHT22;9031;50.974;11.330;2022-07-19T00:59:18;17.40;99.90
17815;DHT22;9031;50.974;11.330;2022-07-19T01:01:44;17.30;99.90
17815;DHT22;9031;50.974;11.330;2022-07-19T01:04:11;17.20;99.90
17815;DHT22;9031;50.974;11.330;2022-07-19T01:06:37;17.00;99.90
17815;DHT22;9031;50.974;11.330;2022-07-19T01:09:03;16.80;99.90
17815;DHT22;9031;50.974;11.330;2022-07-19T01:11:29;16.80;99.90
17815;DHT22;9031;50.974;11.330;2022-07-19T01:13:55;16.90;99.90
17815;DHT22;9031;50.974;11.330;2022-07-19T01:16:20;17.00;99.90
17815;DHT22;9031;50.974;11.330;2022-07-19T01:18:46;16.90;99.90
17815;DHT22;9031;50.974;11.330;2022-07-19T01:21:22;16.90;99.90
17815;DHT22;9031;50.974;11.330;2022-07-19T01:23:48;16.80;99.90
17815;DHT22;9031;50.974;11.330;2022-07-19T01:26:15;16.70;99.90
17815;DHT22;9031;50.974;11.330;2022-07-19T01:28:41;16.70;99.90
17815;DHT22;9031;50.974;11.330;2022-07-19T01:31:06;16.60;99.90
17815;DHT22;9031;50.974;11.330;2022-07-19T01:33:37;16.60;99.90
17815;DHT22;9031;50.974;11.330;2022-07-19T01:36:02;16.60;99.90
17815;DHT22;9031;50.974;11.330;2022-07-19T01:38:28;16.70;99.90
17815;DHT22;9031;50.974;11.330;2022-07-19T01:40:53;16.70;99.90
17815;DHT22;9031;50.974;11.330;2022-07-19T01:43:19;16.70;99.90
17815;DHT22;9031;50.974;11.330;2022-07-19T01:45:44;16.80;99.90
17815;DHT22;9031;50.974;11.330;2022-07-19T01:48:10;16.70;99.90
17815;DHT22;9031;50.974;11.330;2022-07-19T01:50:35;16.70;99.90
17815;DHT22;9031;50.974;11.330;2022-07-19T01:53:01;16.60;99.90
17815;DHT22;9031;50.974;11.330;2022-07-19T01:55:26;16.60;99.90
17815;DHT22;9031;50.974;11.330;2022-07-19T01:57:52;16.60;99.90
17815;DHT22;9031;50.974;11.330;2022-07-19T02:00:18;16.50;99.90
17815;DHT22;9031;50.974;11.330;2022-07-19T02:02:44;16.40;99.90
17815;DHT22;9031;50.974;11.330;2022-07-19T02:05:10;16.40;99.90
17815;DHT22;9031;50.974;11.330;2022-07-19T02:07:35;16.40;99.90
17815;DHT22;9031;50.974;11.330;2022-07-19T02:10:01;16.30;99.90
17815;DHT22;9031;50.974;11.330;2022-07-19T02:12:26;16.30;99.90
17815;DHT22;9031;50.974;11.330;2022-07-19T02:14:52;16.30;99.90
17815;DHT22;9031;50.974;11.330;2022-07-19T02:17:18;16.40;99.90
17815;DHT22;9031;50.974;11.330;2022-07-19T02:19:43;16.30;99.90
17815;DHT22;9031;50.974;11.330;2022-07-19T02:22:09;16.30;99.90
17815;DHT22;9031;50.974;11.330;2022-07-19T02:24:34;16.30;99.90
17815;DHT22;9031;50.974;11.330;2022-07-19T02:27:00;16.40;99.90
17815;DHT22;9031;50.974;11.330;2022-07-19T02:29:25;16.40;99.90
17815;DHT22;9031;50.974;11.330;2022-07-19T02:31:51;16.30;99.90
17815;DHT22;9031;50.974;11.330;2022-07-19T02:34:16;16.20;99.90
17815;DHT22;9031;50.974;11.330;2022-07-19T02:36:42;16.10;99.90
17815;DHT22;9031;50.974;11.330;2022-07-19T02:39:07;16.10;99.90
17815;DHT22;9031;50.974;11.330;2022-07-19T02:41:33;16.00;99.90
17815;DHT22;9031;50.974;11.330;2022-07-19T02:43:58;15.90;99.90
17815;DHT22;9031;50.974;11.330;2022-07-19T02:46:24;15.90;99.90
17815;DHT22;9031;50.974;11.330;2022-07-19T02:48:49;15.90;99.90
17815;DHT22;9031;50.974;11.330;2022-07-19T02:51:15;16.00;99.90
17815;DHT22;9031;50.974;11.330;2022-07-19T02:53:40;16.00;99.90
17815;DHT22;9031;50.974;11.330;2022-07-19T02:56:06;15.90;99.90
17815;DHT22;9031;50.974;11.330;2022-07-19T02:58:32;15.90;99.90
17815;DHT22;9031;50.974;11.330;2022-07-19T03:00:57;15.90;99.90
17815;DHT22;9031;50.974;11.330;2022-07-19T03:03:23;15.90;99.90
17815;DHT22;9031;50.974;11.330;2022-07-19T03:06:24;15.80;99.90
17815;DHT22;9031;50.974;11.330;2022-07-19T03:08:49;15.80;99.90
17815;DHT22;9031;50.974;11.330;2022-07-19T03:11:15;15.80;99.90
17815;DHT22;9031;50.974;11.330;2022-07-19T03:13:40;15.70;99.90
17815;DHT22;9031;50.974;11.330;2022-07-19T03:16:06;15.70;99.90
17815;DHT22;9031;50.974;11.330;2022-07-19T03:18:32;15.60;99.90
17815;DHT22;9031;50.974;11.330;2022-07-19T03:20:58;15.50;99.90
17815;DHT22;9031;50.974;11.330;2022-07-19T03:23:28;15.40;99.90
17815;DHT22;9031;50.974;11.330;2022-07-19T03:25:56;15.50;99.90
17815;DHT22;9031;50.974;11.330;2022-07-19T03:28:21;15.60;99.90
17815;DHT22;9031;50.974;11.330;2022-07-19T03:30:47;15.60;99.90
17815;DHT22;9031;50.974;11.330;2022-07-19T03:33:12;15.60;99.90
17815;DHT22;9031;50.974;11.330;2022-07-19T03:35:42;15.60;99.90
17815;DHT22;9031;50.974;11.330;2022-07-19T03:38:09;15.50;99.90
17815;DHT22;9031;50.974;11.330;2022-07-19T03:40:34;15.50;99.90
17815;DHT22;9031;50.974;11.330;2022-07-19T03:43:00;15.50;99.90
17815;DHT22;9031;50.974;11.330;2022-07-19T03:45:26;15.60;99.90
17815;DHT22;9031;50.974;11.330;2022-07-19T03:47:51;15.60;99.90
17815;DHT22;9031;50.974;11.330;2022-07-19T03:50:17;15.50;99.90
17815;DHT22;9031;50.974;11.330;2022-07-19T03:52:43;15.60;99.90
17815;DHT22;9031;50.974;11.330;2022-07-19T03:55:08;15.60;99.90
17815;DHT22;9031;50.974;11.330;2022-07-19T03:57:34;15.60;99.90
17815;DHT22;9031;50.974;11.330;2022-07-19T03:59:59;15.60;99.90
17815;DHT22;9031;50.974;11.330;2022-07-19T04:02:25;15.70;99.90
17815;DHT22;9031;50.974;11.330;2022-07-19T04:04:50;15.80;99.90
17815;DHT22;9031;50.974;11.330;2022-07-19T04:07:16;15.80;99.90
17815;DHT22;9031;50.974;11.330;2022-07-19T04:09:41;15.80;99.90
17815;DHT22;9031;50.974;11.330;2022-07-19T04:12:07;15.80;99.90
17815;DHT22;9031;50.974;11.330;2022-07-19T04:14:32;15.90;99.90
17815;DHT22;9031;50.974;11.330;2022-07-19T04:16:58;15.90;99.90
17815;DHT22;9031;50.974;11.330;2022-07-19T04:19:23;15.90;99.90
17815;DHT22;9031;50.974;11.330;2022-07-19T04:21:49;16.00;99.90
17815;DHT22;9031;50.974;11.330;2022-07-19T04:24:14;16.10;99.90
17815;DHT22;9031;50.974;11.330;2022-07-19T04:26:40;16.20;99.90
17815;DHT22;9031;50.974;11.330;2022-07-19T04:29:05;16.40;99.90
17815;DHT22;9031;50.974;11.330;2022-07-19T04:31:31;16.50;99.90
17815;DHT22;9031;50.974;11.330;2022-07-19T04:33:56;16.60;99.90
17815;DHT22;9031;50.974;11.330;2022-07-19T04:36:22;16.80;99.90
17815;DHT22;9031;50.974;11.330;2022-07-19T04:38:47;16.80;99.90
17815;DHT22;9031;50.974;11.330;2022-07-19T04:41:13;16.80;99.90
17815;DHT22;9031;50.974;11.330;2022-07-19T04:43:38;16.90;99.90
17815;DHT22;9031;50.974;11.330;2022-07-19T04:46:04;17.00;99.90
17815;DHT22;9031;50.974;11.330;2022-07-19T04:48:30;17.10;99.90
17815;DHT22;9031;50.974;11.330;2022-07-19T04:50:55;17.20;99.90
17815;DHT22;9031;50.974;11.330;2022-07-19T04:53:21;17.30;99.90
17815;DHT22;9031;50.974;11.330;2022-07-19T04:55:47;17.30;99.90
17815;DHT22;9031;50.974;11.330;2022-07-19T04:58:12;17.40;99.90
17815;DHT22;9031;50.974;11.330;2022-07-19T05:00:38;17.60;99.90
17815;DHT22;9031;50.974;11.330;2022-07-19T05:03:03;17.70;99.90
17815;DHT22;9031;50.974;11.330;2022-07-19T05:05:30;17.90;99.90
17815;DHT22;9031;50.974;11.330;2022-07-19T05:07:56;17.90;99.90
17815;DHT22;9031;50.974;11.330;2022-07-19T05:10:21;18.10;99.90
17815;DHT22;9031;50.974;11.330;2022-07-19T05:12:47;18.20;99.90
17815;DHT22;9031;50.974;11.330;2022-07-19T05:15:12;18.40;99.90
17815;DHT22;9031;50.974;11.330;2022-07-19T05:17:38;18.50;99.90
17815;DHT22;9031;50.974;11.330;2022-07-19T05:20:04;18.50;99.90
17815;DHT22;9031;50.974;11.330;2022-07-19T05:22:30;18.60;99.90
17815;DHT22;9031;50.974;11.330;2022-07-19T05:24:56;18.70;99.90
17815;DHT22;9031;50.974;11.330;2022-07-19T05:27:22;18.80;99.90
17815;DHT22;9031;50.974;11.330;2022-07-19T05:29:48;19.00;99.90
17815;DHT22;9031;50.974;11.330;2022-07-19T05:32:13;19.10;99.90
17815;DHT22;9031;50.974;11.330;2022-07-19T05:34:39;19.20;99.90
17815;DHT22;9031;50.974;11.330;2022-07-19T05:37:05;19.30;99.90
17815;DHT22;9031;50.974;11.330;2022-07-19T05:39:30;19.40;99.90
17815;DHT22;9031;50.974;11.330;2022-07-19T05:41:56;19.50;99.90
17815;DHT22;9031;50.974;11.330;2022-07-19T05:44:21;19.70;99.90
17815;DHT22;9031;50.974;11.330;2022-07-19T05:46:47;19.80;99.90
17815;DHT22;9031;50.974;11.330;2022-07-19T05:49:13;19.90;99.90
17815;DHT22;9031;50.974;11.330;2022-07-19T05:51:39;20.10;99.90
17815;DHT22;9031;50.974;11.330;2022-07-19T05:54:05;20.20;99.90
17815;DHT22;9031;50.974;11.330;2022-07-19T05:56:31;20.40;99.90
17815;DHT22;9031;50.974;11.330;2022-07-19T05:58:56;20.50;99.90
17815;DHT22;9031;50.974;11.330;2022-07-19T06:01:22;20.60;99.90
17815;DHT22;9031;50.974;11.330;2022-07-19T06:03:50;20.80;99.90
17815;DHT22;9031;50.974;11.330;2022-07-19T06:06:17;20.90;99.90
17815;DHT22;9031;50.974;11.330;2022-07-19T06:08:43;21.00;99.90
17815;DHT22;9031;50.974;11.330;2022-07-19T06:11:09;21.20;99.90
17815;DHT22;9031;50.974;11.330;2022-07-19T06:13:35;21.40;99.90
17815;DHT22;9031;50.974;11.330;2022-07-19T06:16:01;21.70;99.90
17815;DHT22;9031;50.974;11.330;2022-07-19T06:18:27;21.90;99.90
17815;DHT22;9031;50.974;11.330;2022-07-19T06:20:55;22.10;99.90
17815;DHT22;9031;50.974;11.330;2022-07-19T06:23:21;22.30;99.90
17815;DHT22;9031;50.974;11.330;2022-07-19T06:25:46;22.50;99.90
17815;DHT22;9031;50.974;11.330;2022-07-19T06:28:12;22.70;99.90
17815;DHT22;9031;50.974;11.330;2022-07-19T06:30:37;22.90;99.90
17815;DHT22;9031;50.974;11.330;2022-07-19T06:33:03;23.10;99.90
17815;DHT22;9031;50.974;11.330;2022-07-19T06:35:28;23.30;99.90
17815;DHT22;9031;50.974;11.330;2022-07-19T06:37:54;23.40;99.90
17815;DHT22;9031;50.974;11.330;2022-07-19T06:40:19;23.60;99.90
17815;DHT22;9031;50.974;11.330;2022-07-19T06:42:45;23.80;99.90
17815;DHT22;9031;50.974;11.330;2022-07-19T06:45:10;24.10;99.90
17815;DHT22;9031;50.974;11.330;2022-07-19T06:47:36;24.30;99.90
17815;DHT22;9031;50.974;11.330;2022-07-19T06:50:02;24.60;99.90
17815;DHT22;9031;50.974;11.330;2022-07-19T06:52:28;24.70;99.90
17815;DHT22;9031;50.974;11.330;2022-07-19T06:54:54;24.90;99.90
17815;DHT22;9031;50.974;11.330;2022-07-19T06:57:19;25.10;99.90
17815;DHT22;9031;50.974;11.330;2022-07-19T06:59:45;25.30;99.90
17815;DHT22;9031;50.974;11.330;2022-07-19T07:02:10;25.60;99.90
17815;DHT22;9031;50.974;11.330;2022-07-19T07:04:36;25.80;99.90
17815;DHT22;9031;50.974;11.330;2022-07-19T07:07:01;26.00;99.90
17815;DHT22;9031;50.974;11.330;2022-07-19T07:09:27;26.20;99.90
17815;DHT22;9031;50.974;11.330;2022-07-19T07:11:52;26.30;99.90
17815;DHT22;9031;50.974;11.330;2022-07-19T07:14:18;26.50;99.90
17815;DHT22;9031;50.974;11.330;2022-07-19T07:16:43;26.60;99.90
17815;DHT22;9031;50.974;11.330;2022-07-19T07:19:09;26.80;99.90
17815;DHT22;9031;50.974;11.330;2022-07-19T07:21:35;27.00;99.90
17815;DHT22;9031;50.974;11.330;2022-07-19T07:24:04;27.20;99.90
17815;DHT22;9031;50.974;11.330;2022-07-19T07:26:30;27.30;99.90
17815;DHT22;9031;50.974;11.330;2022-07-19T07:28:57;27.50;99.90
17815;DHT22;9031;50.974;11.330;2022-07-19T07:31:22;27.70;99.90
17815;DHT22;9031;50.974;11.330;2022-07-19T07:33:48;28.00;99.90
17815;DHT22;9031;50.974;11.330;2022-07-19T07:36:14;28.20;99.90
17815;DHT22;9031;50.974;11.330;2022-07-19T07:38:39;28.20;99.90
17815;DHT22;9031;50.974;11.330;2022-07-19T07:41:05;28.30;99.90
17815;DHT22;9031;50.974;11.330;2022-07-19T07:43:30;28.30;99.90
17815;DHT22;9031;50.974;11.330;2022-07-19T07:45:56;28.50;99.90
17815;DHT22;9031;50.974;11.330;2022-07-19T07:48:22;28.90;99.90
17815;DHT22;9031;50.974;11.330;2022-07-19T07:50:47;29.10;99.20
17815;DHT22;9031;50.974;11.330;2022-07-19T07:53:13;29.10;99.90
17815;DHT22;9031;50.974;11.330;2022-07-19T07:55:39;29.20;99.90
17815;DHT22;9031;50.974;11.330;2022-07-19T07:58:09;29.50;99.70
17815;DHT22;9031;50.974;11.330;2022-07-19T08:00:36;29.60;99.60
17815;DHT22;9031;50.974;11.330;2022-07-19T08:03:02;29.70;97.30
17815;DHT22;9031;50.974;11.330;2022-07-19T08:05:28;29.80;97.80
17815;DHT22;9031;50.974;11.330;2022-07-19T08:07:54;30.00;97.10
17815;DHT22;9031;50.974;11.330;2022-07-19T08:10:24;30.10;95.90
17815;DHT22;9031;50.974;11.330;2022-07-19T08:12:50;30.30;95.30
17815;DHT22;9031;50.974;11.330;2022-07-19T08:15:16;30.30;94.60
17815;DHT22;9031;50.974;11.330;2022-07-19T08:17:42;30.50;94.70
17815;DHT22;9031;50.974;11.330;2022-07-19T08:20:10;30.70;93.60
17815;DHT22;9031;50.974;11.330;2022-07-19T08:22:36;30.80;93.30
17815;DHT22;9031;50.974;11.330;2022-07-19T08:25:02;30.90;92.70
17815;DHT22;9031;50.974;11.330;2022-07-19T08:27:27;30.90;92.20
17815;DHT22;9031;50.974;11.330;2022-07-19T08:29:53;31.10;92.30
17815;DHT22;9031;50.974;11.330;2022-07-19T08:32:18;31.40;91.40
17815;DHT22;9031;50.974;11.330;2022-07-19T08:34:44;31.40;91.50
17815;DHT22;9031;50.974;11.330;2022-07-19T08:37:09;31.30;90.20
17815;DHT22;9031;50.974;11.330;2022-07-19T08:39:35;31.50;89.50
17815;DHT22;9031;50.974;11.330;2022-07-19T08:42:00;31.80;88.80
17815;DHT22;9031;50.974;11.330;2022-07-19T08:44:27;32.00;88.30
17815;DHT22;9031;50.974;11.330;2022-07-19T08:46:54;32.20;88.20
17815;DHT22;9031;50.974;11.330;2022-07-19T08:49:19;32.40;88.00
17815;DHT22;9031;50.974;11.330;2022-07-19T08:51:47;32.30;86.20
17815;DHT22;9031;50.974;11.330;2022-07-19T08:54:14;32.30;84.50
17815;DHT22;9031;50.974;11.330;2022-07-19T08:56:40;32.30;84.00
17815;DHT22;9031;50.974;11.330;2022-07-19T08:59:24;32.60;82.90
17815;DHT22;9031;50.974;11.330;2022-07-19T09:01:50;32.90;82.80
17815;DHT22;9031;50.974;11.330;2022-07-19T09:04:17;33.00;82.20
17815;DHT22;9031;50.974;11.330;2022-07-19T09:06:46;33.20;85.60
17815;DHT22;9031;50.974;11.330;2022-07-19T09:09:13;33.40;81.30
17815;DHT22;9031;50.974;11.330;2022-07-19T09:11:42;33.50;81.90
17815;DHT22;9031;50.974;11.330;2022-07-19T09:14:27;33.90;82.20
17815;DHT22;9031;50.974;11.330;2022-07-19T09:16:59;34.10;80.50
17815;DHT22;9031;50.974;11.330;2022-07-19T09:19:31;34.20;80.00
17815;DHT22;9031;50.974;11.330;2022-07-19T09:22:05;34.20;79.00
17815;DHT22;9031;50.974;11.330;2022-07-19T09:24:34;34.40;79.70
17815;DHT22;9031;50.974;11.330;2022-07-19T09:27:03;34.40;78.20
17815;DHT22;9031;50.974;11.330;2022-07-19T09:29:30;34.50;77.40
17815;DHT22;9031;50.974;11.330;2022-07-19T09:32:05;34.70;77.20
17815;DHT22;9031;50.974;11.330;2022-07-19T09:34:38;34.70;76.80
17815;DHT22;9031;50.974;11.330;2022-07-19T09:39:32;35.00;76.00
17815;DHT22;9031;50.974;11.330;2022-07-19T09:41:58;35.20;75.80
17815;DHT22;9031;50.974;11.330;2022-07-19T09:44:23;35.60;75.50
17815;DHT22;9031;50.974;11.330;2022-07-19T09:46:49;35.60;74.80
17815;DHT22;9031;50.974;11.330;2022-07-19T09:49:17;35.70;73.50
17815;DHT22;9031;50.974;11.330;2022-07-19T09:51:53;35.80;72.80
17815;DHT22;9031;50.974;11.330;2022-07-19T09:54:24;36.10;75.10
17815;DHT22;9031;50.974;11.330;2022-07-19T09:56:52;36.50;74.80
17815;DHT22;9031;50.974;11.330;2022-07-19T09:59:18;36.50;72.10
17815;DHT22;9031;50.974;11.330;2022-07-19T10:01:46;36.10;70.60
17815;DHT22;9031;50.974;11.330;2022-07-19T10:04:16;35.80;71.20
17815;DHT22;9031;50.974;11.330;2022-07-19T10:06:42;36.00;69.90
17815;DHT22;9031;50.974;11.330;2022-07-19T10:09:11;36.30;69.80
17815;DHT22;9031;50.974;11.330;2022-07-19T10:11:37;36.20;68.70
17815;DHT22;9031;50.974;11.330;2022-07-19T10:14:03;35.90;68.50
17815;DHT22;9031;50.974;11.330;2022-07-19T10:19:19;35.50;69.50
17815;DHT22;9031;50.974;11.330;2022-07-19T10:21:48;35.50;68.70
17815;DHT22;9031;50.974;11.330;2022-07-19T10:24:13;35.60;69.50
17815;DHT22;9031;50.974;11.330;2022-07-19T10:26:41;36.00;69.80
17815;DHT22;9031;50.974;11.330;2022-07-19T10:29:11;36.40;69.10
17815;DHT22;9031;50.974;11.330;2022-07-19T10:31:37;36.60;67.90
17815;DHT22;9031;50.974;11.330;2022-07-19T10:34:09;36.30;67.90
17815;DHT22;9031;50.974;11.330;2022-07-19T10:36:46;36.10;69.50
17815;DHT22;9031;50.974;11.330;2022-07-19T10:45:12;36.60;69.30
17815;DHT22;9031;50.974;11.330;2022-07-19T10:50:12;37.10;68.10
17815;DHT22;9031;50.974;11.330;2022-07-19T10:52:46;37.10;68.20
17815;DHT22;9031;50.974;11.330;2022-07-19T11:00:43;38.00;65.30
17815;DHT22;9031;50.974;11.330;2022-07-19T11:06:00;38.30;65.00
17815;DHT22;9031;50.974;11.330;2022-07-19T11:08:38;38.80;64.30
17815;DHT22;9031;50.974;11.330;2022-07-19T11:11:14;39.20;64.50
17815;DHT22;9031;50.974;11.330;2022-07-19T11:13:44;39.50;62.70
17815;DHT22;9031;50.974;11.330;2022-07-19T11:16:10;39.40;63.40
17815;DHT22;9031;50.974;11.330;2022-07-19T11:18:35;40.00;64.00
17815;DHT22;9031;50.974;11.330;2022-07-19T11:21:04;40.30;61.90
17815;DHT22;9031;50.974;11.330;2022-07-19T11:23:32;40.60;61.80
17815;DHT22;9031;50.974;11.330;2022-07-19T11:26:12;40.30;60.40
17815;DHT22;9031;50.974;11.330;2022-07-19T11:28:40;40.30;60.60
17815;DHT22;9031;50.974;11.330;2022-07-19T11:31:15;40.60;61.90
17815;DHT22;9031;50.974;11.330;2022-07-19T11:33:41;40.70;60.50
17815;DHT22;9031;50.974;11.330;2022-07-19T11:36:07;40.80;60.10
17815;DHT22;9031;50.974;11.330;2022-07-19T11:40:59;42.00;58.50
17815;DHT22;9031;50.974;11.330;2022-07-19T11:43:25;42.20;58.70
17815;DHT22;9031;50.974;11.330;2022-07-19T11:45:51;42.00;59.00
17815;DHT22;9031;50.974;11.330;2022-07-19T11:48:30;42.20;58.30
17815;DHT22;9031;50.974;11.330;2022-07-19T11:51:02;41.50;58.80
17815;DHT22;9031;50.974;11.330;2022-07-19T11:53:28;42.10;58.40
17815;DHT22;9031;50.974;11.330;2022-07-19T11:55:54;42.60;57.60
17815;DHT22;9031;50.974;11.330;2022-07-19T11:58:20;42.50;58.30
17815;DHT22;9031;50.974;11.330;2022-07-19T12:00:46;43.00;58.10
17815;DHT22;9031;50.974;11.330;2022-07-19T12:03:16;42.10;58.20
17815;DHT22;9031;50.974;11.330;2022-07-19T12:05:55;42.20;58.20
17815;DHT22;9031;50.974;11.330;2022-07-19T12:08:22;43.00;57.10
17815;DHT22;9031;50.974;11.330;2022-07-19T12:10:56;42.20;57.90
17815;DHT22;9031;50.974;11.330;2022-07-19T12:15:56;43.50;56.80
17815;DHT22;9031;50.974;11.330;2022-07-19T12:18:45;43.00;56.20
17815;DHT22;9031;50.974;11.330;2022-07-19T12:23:42;42.80;56.00
17815;DHT22;9031;50.974;11.330;2022-07-19T12:26:09;42.80;56.80
17815;DHT22;9031;50.974;11.330;2022-07-19T12:28:35;42.60;56.10
17815;DHT22;9031;50.974;11.330;2022-07-19T12:31:04;42.30;55.60
17815;DHT22;9031;50.974;11.330;2022-07-19T12:33:30;42.30;56.00
17815;DHT22;9031;50.974;11.330;2022-07-19T12:35:56;42.30;55.90
17815;DHT22;9031;50.974;11.330;2022-07-19T12:38:32;42.70;56.40
17815;DHT22;9031;50.974;11.330;2022-07-19T12:41:07;43.00;55.40
17815;DHT22;9031;50.974;11.330;2022-07-19T12:43:34;43.00;54.80
17815;DHT22;9031;50.974;11.330;2022-07-19T12:46:00;43.60;55.00
17815;DHT22;9031;50.974;11.330;2022-07-19T12:48:27;44.60;55.30
17815;DHT22;9031;50.974;11.330;2022-07-19T12:50:53;44.50;54.20
17815;DHT22;9031;50.974;11.330;2022-07-19T12:53:20;44.40;54.70
17815;DHT22;9031;50.974;11.330;2022-07-19T12:55:46;45.30;53.80
17815;DHT22;9031;50.974;11.330;2022-07-19T12:58:15;44.50;54.10
17815;DHT22;9031;50.974;11.330;2022-07-19T13:01:00;44.60;53.80
17815;DHT22;9031;50.974;11.330;2022-07-19T13:03:26;43.10;54.20
17815;DHT22;9031;50.974;11.330;2022-07-19T13:05:51;42.50;54.90
17815;DHT22;9031;50.974;11.330;2022-07-19T13:08:17;42.70;54.70
17815;DHT22;9031;50.974;11.330;2022-07-19T13:10:42;43.40;54.10
17815;DHT22;9031;50.974;11.330;2022-07-19T13:13:09;43.50;53.50
17815;DHT22;9031;50.974;11.330;2022-07-19T13:15:35;43.30;53.90
17815;DHT22;9031;50.974;11.330;2022-07-19T13:18:01;42.80;53.90
17815;DHT22;9031;50.974;11.330;2022-07-19T13:20:27;43.10;54.20
17815;DHT22;9031;50.974;11.330;2022-07-19T13:22:52;43.70;54.30
17815;DHT22;9031;50.974;11.330;2022-07-19T13:25:18;43.60;54.50
17815;DHT22;9031;50.974;11.330;2022-07-19T13:27:44;43.90;53.30
17815;DHT22;9031;50.974;11.330;2022-07-19T13:30:09;43.80;52.90
17815;DHT22;9031;50.974;11.330;2022-07-19T13:32:35;44.30;52.80
17815;DHT22;9031;50.974;11.330;2022-07-19T13:35:01;44.50;52.90
17815;DHT22;9031;50.974;11.330;2022-07-19T13:37:26;45.10;52.90
17815;DHT22;9031;50.974;11.330;2022-07-19T13:39:52;45.10;51.60
17815;DHT22;9031;50.974;11.330;2022-07-19T13:42:17;45.20;51.80
17815;DHT22;9031;50.974;11.330;2022-07-19T13:44:43;44.60;51.70
17815;DHT22;9031;50.974;11.330;2022-07-19T13:47:08;44.50;52.30
17815;DHT22;9031;50.974;11.330;2022-07-19T13:49:34;44.60;52.50
17815;DHT22;9031;50.974;11.330;2022-07-19T13:51:59;44.40;53.30
17815;DHT22;9031;50.974;11.330;2022-07-19T13:54:25;44.20;52.20
17815;DHT22;9031;50.974;11.330;2022-07-19T13:56:50;43.90;52.80
17815;DHT22;9031;50.974;11.330;2022-07-19T13:59:16;43.90;53.00
17815;DHT22;9031;50.974;11.330;2022-07-19T14:01:43;43.80;52.70
17815;DHT22;9031;50.974;11.330;2022-07-19T14:04:08;44.10;52.90
17815;DHT22;9031;50.974;11.330;2022-07-19T14:06:34;44.30;52.30
17815;DHT22;9031;50.974;11.330;2022-07-19T14:08:59;44.60;52.20
17815;DHT22;9031;50.974;11.330;2022-07-19T14:11:25;44.40;52.10
17815;DHT22;9031;50.974;11.330;2022-07-19T14:13:50;43.90;52.90
17815;DHT22;9031;50.974;11.330;2022-07-19T14:16:17;44.10;52.00
17815;DHT22;9031;50.974;11.330;2022-07-19T14:18:42;44.10;52.20
17815;DHT22;9031;50.974;11.330;2022-07-19T14:21:08;44.20;52.30
17815;DHT22;9031;50.974;11.330;2022-07-19T14:23:33;44.20;52.30
17815;DHT22;9031;50.974;11.330;2022-07-19T14:25:59;44.30;51.20
17815;DHT22;9031;50.974;11.330;2022-07-19T14:28:25;44.40;51.10
17815;DHT22;9031;50.974;11.330;2022-07-19T14:30:50;43.80;51.50
17815;DHT22;9031;50.974;11.330;2022-07-19T14:33:16;43.90;52.60
17815;DHT22;9031;50.974;11.330;2022-07-19T14:35:41;44.30;51.30
17815;DHT22;9031;50.974;11.330;2022-07-19T14:38:07;45.10;51.90
17815;DHT22;9031;50.974;11.330;2022-07-19T14:40:33;45.70;50.30
17815;DHT22;9031;50.974;11.330;2022-07-19T14:42:59;46.10;51.40
17815;DHT22;9031;50.974;11.330;2022-07-19T14:45:25;45.50;50.80
17815;DHT22;9031;50.974;11.330;2022-07-19T14:47:51;45.10;50.40
17815;DHT22;9031;50.974;11.330;2022-07-19T14:50:16;45.00;50.90
17815;DHT22;9031;50.974;11.330;2022-07-19T14:52:42;45.00;50.00
17815;DHT22;9031;50.974;11.330;2022-07-19T14:55:09;45.50;50.30
17815;DHT22;9031;50.974;11.330;2022-07-19T14:57:35;45.10;50.30
17815;DHT22;9031;50.974;11.330;2022-07-19T15:00:06;45.00;50.50
17815;DHT22;9031;50.974;11.330;2022-07-19T15:02:32;45.30;50.30
17815;DHT22;9031;50.974;11.330;2022-07-19T15:04:57;44.80;49.80
17815;DHT22;9031;50.974;11.330;2022-07-19T15:07:24;44.30;49.90
17815;DHT22;9031;50.974;11.330;2022-07-19T15:09:50;44.10;50.70
17815;DHT22;9031;50.974;11.330;2022-07-19T15:12:15;44.10;50.50
17815;DHT22;9031;50.974;11.330;2022-07-19T15:14:41;44.30;50.40
17815;DHT22;9031;50.974;11.330;2022-07-19T15:17:06;44.50;50.40
17815;DHT22;9031;50.974;11.330;2022-07-19T15:19:32;44.80;50.70
17815;DHT22;9031;50.974;11.330;2022-07-19T15:21:58;44.90;49.50
17815;DHT22;9031;50.974;11.330;2022-07-19T15:24:23;45.00;50.30
17815;DHT22;9031;50.974;11.330;2022-07-19T15:26:49;45.20;50.40
17815;DHT22;9031;50.974;11.330;2022-07-19T15:29:15;45.00;49.50
17815;DHT22;9031;50.974;11.330;2022-07-19T15:31:44;45.00;49.60
17815;DHT22;9031;50.974;11.330;2022-07-19T15:34:10;45.10;49.70
17815;DHT22;9031;50.974;11.330;2022-07-19T15:36:35;45.70;50.30
17815;DHT22;9031;50.974;11.330;2022-07-19T15:39:01;45.60;49.30
17815;DHT22;9031;50.974;11.330;2022-07-19T15:41:27;45.60;49.20
17815;DHT22;9031;50.974;11.330;2022-07-19T15:43:53;45.90;49.80
17815;DHT22;9031;50.974;11.330;2022-07-19T15:46:19;45.60;49.30
17815;DHT22;9031;50.974;11.330;2022-07-19T15:48:44;45.40;49.40
17815;DHT22;9031;50.974;11.330;2022-07-19T15:51:10;45.40;49.50
17815;DHT22;9031;50.974;11.330;2022-07-19T15:53:37;45.50;49.00
17815;DHT22;9031;50.974;11.330;2022-07-19T15:56:04;45.20;49.40